Oglasa — ITMG — position and weather

sailwx.info

Track history (hours):
 
Tides and Currents Weather Stations Pressure Air Temp Water Temp Dewpoint Dewpoint Depression Visibility Wind Speed Wind Dir Waves Ship Positions

Oglasa

Last reported at 2016-Sep-29 15:33 UTC. Time now 2016-Sep-30 08:25 UTC.
Position N 42°52' E 010°23'.

Length 91 m; draft 3.8 m.

Type: Ship. MMSI: 247046800.

Date/timePositionNaut miles runAvg speedWind from/ knotsBaromVisibWave heightAir tempDewpointWater temp
2016-Sep-29 15:33N 42°52' E 010°23'2 2.1
2016-Sep-29 14:33N 42°50' E 010°22'2 0.2
2016-Sep-29 00:33N 42°49' E 010°19'1 0.2
2016-Sep-28 21:14N 42°49' E 010°20'12 6.9
2016-Sep-28 19:33N 42°56' E 010°33'0 0.1
2016-Sep-28 16:10N 42°56' E 010°33'813.2
2016-Sep-28 15:33N 42°52' E 010°23'5 0.4
2016-Sep-28 03:30N 42°49' E 010°19'0 0.0
2016-Sep-28 02:31N 42°49' E 010°19'0 0.0
2016-Sep-28 01:32N 42°49' E 010°19'0 0.0
2016-Sep-27 23:29N 42°49' E 010°19'13 3.2
2016-Sep-27 19:28N 42°56' E 010°34'11 2.3
2016-Sep-27 14:32N 42°50' E 010°21'2 0.1
2016-Sep-27 00:33N 42°49' E 010°19'12 2.9
2016-Sep-26 20:32N 42°55' E 010°33'0 0.2
2016-Sep-26 19:23N 42°54' E 010°33'8 2.0
2016-Sep-26 15:33N 42°52' E 010°23'4 0.5
2016-Sep-26 08:03N 42°49' E 010°19'1 0.1
2016-Sep-25 21:22N 42°49' E 010°21'5 1.1
2016-Sep-25 16:31N 42°53' E 010°25'6 5.7
2016-Sep-25 15:26N 42°49' E 010°20'2 0.7
2016-Sep-25 12:17N 42°50' E 010°22'4 0.9
2016-Sep-25 07:33N 42°53' E 010°26'6 2.1
2016-Sep-25 04:33N 42°49' E 010°19'0 0.0
2016-Sep-25 00:32N 42°49' E 010°19'0 0.0
2016-Sep-24 22:33N 42°49' E 010°19'0 0.0
2016-Sep-24 21:33N 42°49' E 010°19'7 3.4
2016-Sep-24 19:34N 42°53' E 010°26'7 6.7
2016-Sep-24 18:33N 42°49' E 010°19'4 1.9
2016-Sep-24 16:21N 42°52' E 010°23'4 1.0
2016-Sep-24 12:26N 42°49' E 010°20'2 0.6
2016-Sep-24 09:23N 42°50' E 010°21'1 0.1
2016-Sep-23 19:17N 42°51' E 010°22'2 0.6
2016-Sep-23 15:21N 42°49' E 010°21'1 0.1
2016-Sep-23 04:31N 42°49' E 010°19'0 0.0
2016-Sep-23 03:33N 42°49' E 010°19'0 0.0
2016-Sep-23 02:33N 42°49' E 010°19'0 0.0
2016-Sep-23 01:33N 42°49' E 010°19'0 0.0
2016-Sep-23 00:31N 42°49' E 010°19'7 0.3
2016-Sep-21 19:34N 42°53' E 010°27'7 0.5
2016-Sep-21 03:24N 42°49' E 010°19'7 0.5
2016-Sep-20 13:33N 42°53' E 010°26'0 0.1
2016-Sep-20 10:33N 42°53' E 010°26'1 0.4
2016-Sep-20 07:31N 42°53' E 010°25'6 1.1
2016-Sep-20 02:07N 42°49' E 010°19'0 0.0
2016-Sep-19 23:33N 42°49' E 010°19'1 0.2
2016-Sep-19 18:24N 42°49' E 010°21'5 2.9
2016-Sep-19 16:33N 42°53' E 010°26'  
Track history (hours):
 
Tides and Currents Weather Stations Pressure Air Temp Water Temp Dewpoint Dewpoint Depression Visibility Wind Speed Wind Dir Waves Ship Positions

Oglasa

Last reported at 2016-Sep-29 15:33 UTC. Time now 2016-Sep-30 08:25 UTC.
Position N 42°52' E 010°23'.

Length 91 m; draft 3.8 m.

Type: Ship. MMSI: 247046800.

Date/timePositionNaut miles runAvg speedWind from/ knotsBaromVisibWave heightAir tempDewpointWater temp
2016-Sep-29 15:33N 42°52' E 010°23'2 2.1
2016-Sep-29 14:33N 42°50' E 010°22'2 0.2
2016-Sep-29 00:33N 42°49' E 010°19'1 0.2
2016-Sep-28 21:14N 42°49' E 010°20'12 6.9
2016-Sep-28 19:33N 42°56' E 010°33'0 0.1
2016-Sep-28 16:10N 42°56' E 010°33'813.2
2016-Sep-28 15:33N 42°52' E 010°23'5 0.4
2016-Sep-28 03:30N 42°49' E 010°19'0 0.0
2016-Sep-28 02:31N 42°49' E 010°19'0 0.0
2016-Sep-28 01:32N 42°49' E 010°19'0 0.0
2016-Sep-27 23:29N 42°49' E 010°19'13 3.2
2016-Sep-27 19:28N 42°56' E 010°34'11 2.3
2016-Sep-27 14:32N 42°50' E 010°21'2 0.1
2016-Sep-27 00:33N 42°49' E 010°19'12 2.9
2016-Sep-26 20:32N 42°55' E 010°33'0 0.2
2016-Sep-26 19:23N 42°54' E 010°33'8 2.0
2016-Sep-26 15:33N 42°52' E 010°23'4 0.5
2016-Sep-26 08:03N 42°49' E 010°19'1 0.1
2016-Sep-25 21:22N 42°49' E 010°21'5 1.1
2016-Sep-25 16:31N 42°53' E 010°25'6 5.7
2016-Sep-25 15:26N 42°49' E 010°20'2 0.7
2016-Sep-25 12:17N 42°50' E 010°22'4 0.9
2016-Sep-25 07:33N 42°53' E 010°26'6 2.1
2016-Sep-25 04:33N 42°49' E 010°19'0 0.0
2016-Sep-25 00:32N 42°49' E 010°19'0 0.0
2016-Sep-24 22:33N 42°49' E 010°19'0 0.0
2016-Sep-24 21:33N 42°49' E 010°19'7 3.4
2016-Sep-24 19:34N 42°53' E 010°26'7 6.7
2016-Sep-24 18:33N 42°49' E 010°19'4 1.9
2016-Sep-24 16:21N 42°52' E 010°23'4 1.0
2016-Sep-24 12:26N 42°49' E 010°20'2 0.6
2016-Sep-24 09:23N 42°50' E 010°21'1 0.1
2016-Sep-23 19:17N 42°51' E 010°22'2 0.6
2016-Sep-23 15:21N 42°49' E 010°21'1 0.1
2016-Sep-23 04:31N 42°49' E 010°19'0 0.0
2016-Sep-23 03:33N 42°49' E 010°19'0 0.0
2016-Sep-23 02:33N 42°49' E 010°19'0 0.0
2016-Sep-23 01:33N 42°49' E 010°19'0 0.0
2016-Sep-23 00:31N 42°49' E 010°19'7 0.3
2016-Sep-21 19:34N 42°53' E 010°27'7 0.5
2016-Sep-21 03:24N 42°49' E 010°19'7 0.5
2016-Sep-20 13:33N 42°53' E 010°26'0 0.1
2016-Sep-20 10:33N 42°53' E 010°26'1 0.4
2016-Sep-20 07:31N 42°53' E 010°25'6 1.1
2016-Sep-20 02:07N 42°49' E 010°19'0 0.0
2016-Sep-19 23:33N 42°49' E 010°19'1 0.2
2016-Sep-19 18:24N 42°49' E 010°21'5 2.9
2016-Sep-19 16:33N 42°53' E 010°26'  

Dump ship's entire track history